Decoded Metar for EVRA (RIGA AIRPORT in LATVIA) (IATA:N/A) | Meteo·Mobile Aviation Weather
aviador You're here:

EVRA Decoded Metar

RIGA AIRPORT in LATVIA
Report Time2019-02-16 00:50:00
UTC Time2019-02-16 00:52:12
Flight Rules ifr IFR
Wind220° at 07 kt
W.Decomp.*RWY 18: 5.9 kt HW 3.8 kt RCW
W.Rank220° ranks 6
Current wind is above 220° avg. (6.0)
Visibility9999 m
Phenomena:N/A
Clouds:Broken 006 Hf
Expected CloudBase > 400 ft AGL from Temp-Dew spread
Ceiling600 ft
Temp03°C (ISA -12)
Dew Point02°C (93% RH)
AAT-1.2°C
QNH1021 hPa
Density Alt-1,591 ft
Elevation33 ft
Report Wrong Elevation
Raw Report
METAR EVRA 160050Z 22007KT 9999 BKN006 03/02 Q1021 R18/190095 NOSIG=

Extra information for EVRA:More info

Metar Taf Metar & Taf Last 4 Metars F.Rules Stats Wind Profile Meteogram Temp Stats Airport Information Weather charts Add Link Nearby VenuesMetar ALERT Operation Metar Decoded Social comments